Time;durP1;ratioP1;P1;durP2;ratioP2;P2;SDS_P1;SDS_P2;PMS_P1;PMS_P2;Temp;Humidity;BMP_temperature;BMP_pressure;BME280_temperature;BME280_humidity;BME280_pressure;Samples;Min_cycle;Max_cycle;Signal;HPM_P1;HPM_P2
2021/10/17 00:00:22;;;;;;;20.03;15.97;;;;;;;5.53;100.00;98562.31;5074438;28;20562;-62
2021/10/17 00:02:49;;;;;;;21.40;15.30;;;;;;;5.53;100.00;98568.41;5075277;28;20220;-62
2021/10/17 00:05:17;;;;;;;19.43;14.40;;;;;;;5.52;100.00;98561.47;5075247;28;20223;-62
2021/10/17 00:07:44;;;;;;;17.43;13.80;;;;;;;5.53;100.00;98568.41;5075274;28;20264;-62
2021/10/17 00:10:13;;;;;;;15.87;13.77;;;;;;;5.44;100.00;98557.47;5072256;28;20240;-62
2021/10/17 00:12:41;;;;;;;14.77;12.77;;;;;;;5.41;100.00;98562.81;5075268;28;20215;-61
2021/10/17 00:15:12;;;;;;;15.80;12.73;;;;;;;5.37;100.00;98567.34;5074681;28;20249;-62
2021/10/17 00:17:39;;;;;;;15.47;12.60;;;;;;;5.32;100.00;98563.22;5075183;28;20241;-62
2021/10/17 00:20:08;;;;;;;14.33;11.90;;;;;;;5.25;100.00;98554.75;5075220;28;20214;-61
2021/10/17 00:22:35;;;;;;;15.73;12.47;;;;;;;5.23;100.00;98561.81;5075119;28;20590;-62
2021/10/17 00:25:01;;;;;;;20.47;13.63;;;;;;;5.16;100.00;98559.50;5075266;28;20211;-61
2021/10/17 00:27:28;;;;;;;21.17;14.33;;;;;;;5.10;100.00;98559.75;5073410;28;20237;-61
2021/10/17 00:29:54;;;;;;;20.20;13.27;;;;;;;5.02;100.00;98561.84;5074641;28;20246;-61
2021/10/17 00:32:22;;;;;;;16.23;12.40;;;;;;;4.95;100.00;98566.47;5074934;28;20218;-61
2021/10/17 00:34:49;;;;;;;17.00;12.30;;;;;;;4.94;100.00;98559.53;5074501;28;20218;-61
2021/10/17 00:37:17;;;;;;;15.80;12.23;;;;;;;4.90;100.00;98557.94;5074405;28;20219;-61
2021/10/17 00:39:43;;;;;;;16.93;12.50;;;;;;;4.87;100.00;98558.06;5074682;28;20272;-61
2021/10/17 00:42:11;;;;;;;16.03;11.73;;;;;;;4.79;100.00;98554.91;5074448;28;20233;-61
2021/10/17 00:44:41;;;;;;;15.10;11.23;;;;;;;4.81;100.00;98554.81;5074688;28;20215;-61
2021/10/17 00:47:07;;;;;;;13.30;11.33;;;;;;;4.72;100.00;98558.69;5074575;28;20214;-61
2021/10/17 00:49:35;;;;;;;13.17;10.97;;;;;;;4.66;100.00;98552.81;5074253;28;20245;-61
2021/10/17 00:52:02;;;;;;;13.17;10.87;;;;;;;4.64;100.00;98554.66;5074435;28;20231;-61
2021/10/17 00:54:29;;;;;;;14.00;10.80;;;;;;;4.55;100.00;98549.78;5073045;28;20222;-61
2021/10/17 00:56:56;;;;;;;12.90;10.70;;;;;;;4.61;100.00;98550.41;5074367;28;20233;-61
2021/10/17 00:59:22;;;;;;;14.70;11.60;;;;;;;4.62;100.00;98551.22;5073935;28;20206;-61
2021/10/17 01:01:49;;;;;;;16.93;12.20;;;;;;;4.63;100.00;98548.56;5074047;28;20225;-61
2021/10/17 01:04:15;;;;;;;18.27;12.40;;;;;;;4.61;100.00;98539.06;5074149;28;20209;-61
2021/10/17 01:06:43;;;;;;;16.03;11.90;;;;;;;4.66;100.00;98547.59;5074090;28;20207;-62
2021/10/17 01:09:10;;;;;;;17.73;12.90;;;;;;;4.68;100.00;98541.38;5073729;28;20277;-61
2021/10/17 01:11:40;;;;;;;23.40;16.10;;;;;;;4.76;100.00;98539.31;5073799;28;20673;-62
2021/10/17 01:14:07;;;;;;;23.20;15.30;;;;;;;4.75;100.00;98542.84;5073853;28;20649;-61
2021/10/17 01:16:33;;;;;;;19.60;14.90;;;;;;;4.75;100.00;98537.59;5074019;28;20584;-62
2021/10/17 01:19:00;;;;;;;21.87;15.30;;;;;;;4.77;100.00;98530.53;5072325;28;20236;-61
2021/10/17 01:21:28;;;;;;;17.43;13.47;;;;;;;4.78;100.00;98528.78;5073904;28;20217;-61
2021/10/17 01:23:55;;;;;;;16.67;12.47;;;;;;;4.75;100.00;98524.50;5072676;28;20214;-61
2021/10/17 01:26:21;;;;;;;19.17;14.10;;;;;;;4.72;100.00;98514.19;5073743;28;20222;-61
2021/10/17 01:28:49;;;;;;;22.23;15.47;;;;;;;4.65;100.00;98525.78;5073413;28;20244;-62
2021/10/17 01:31:15;;;;;;;24.83;16.87;;;;;;;4.64;100.00;98516.22;5073787;28;20216;-62
2021/10/17 01:33:42;;;;;;;25.80;18.60;;;;;;;4.59;100.00;98515.56;5069969;28;20213;-62
2021/10/17 01:36:08;;;;;;;26.73;18.60;;;;;;;4.54;100.00;98520.13;5070982;28;20210;-62
2021/10/17 01:38:36;;;;;;;25.50;18.57;;;;;;;4.55;100.00;98516.59;5073626;28;20213;-62
2021/10/17 01:41:03;;;;;;;26.57;18.67;;;;;;;4.56;100.00;98523.53;5073621;28;20586;-62
2021/10/17 01:43:29;;;;;;;24.90;19.30;;;;;;;4.58;100.00;98523.50;5073244;28;20218;-62
2021/10/17 01:45:58;;;;;;;26.80;19.03;;;;;;;4.60;100.00;98519.03;5071455;28;20229;-61
2021/10/17 01:48:24;;;;;;;27.53;18.90;;;;;;;4.53;100.00;98515.78;5073472;28;20601;-62
2021/10/17 01:50:50;;;;;;;27.93;19.23;;;;;;;4.50;100.00;98521.16;5073305;28;20221;-61
2021/10/17 01:53:17;;;;;;;26.17;18.77;;;;;;;4.49;100.00;98519.47;5073108;28;20222;-61
2021/10/17 01:55:45;;;;;;;25.33;18.00;;;;;;;4.46;100.00;98524.81;5073332;28;20209;-61
2021/10/17 01:58:11;;;;;;;28.37;20.27;;;;;;;4.45;100.00;98520.47;5073296;28;20213;-61
2021/10/17 02:00:38;;;;;;;28.10;19.43;;;;;;;4.48;100.00;98517.75;5073569;28;20224;-62
2021/10/17 02:03:04;;;;;;;26.93;18.57;;;;;;;4.51;100.00;98517.63;5073295;28;20214;-61
2021/10/17 02:05:31;;;;;;;26.20;19.00;;;;;;;4.49;100.00;98513.38;5073254;28;20230;-61
2021/10/17 02:07:57;;;;;;;19.60;14.87;;;;;;;4.37;100.00;98517.31;5073124;28;20217;-61
2021/10/17 02:10:24;;;;;;;13.83;11.30;;;;;;;4.25;100.00;98523.03;5072102;28;20209;-62
2021/10/17 02:12:51;;;;;;;11.83;10.60;;;;;;;4.05;100.00;98519.44;5072543;28;20214;-62
2021/10/17 02:15:18;;;;;;;11.67;10.50;;;;;;;3.93;100.00;98518.16;5072330;28;20242;-61
2021/10/17 02:17:46;;;;;;;11.97;10.37;;;;;;;3.78;100.00;98513.47;5073032;28;20221;-61
2021/10/17 02:20:14;;;;;;;10.70;9.60;;;;;;;3.70;100.00;98517.25;5073126;28;20218;-61
2021/10/17 02:22:40;;;;;;;12.33;10.67;;;;;;;3.61;100.00;98515.81;5073057;28;20552;-61
2021/10/17 02:25:08;;;;;;;15.23;13.33;;;;;;;3.55;100.00;98513.44;5072590;28;20685;-61
2021/10/17 02:27:34;;;;;;;15.77;12.53;;;;;;;3.65;100.00;98511.34;5072956;28;20213;-61
2021/10/17 02:30:02;;;;;;;14.67;12.57;;;;;;;3.67;100.00;98502.53;5072921;28;20258;-62
2021/10/17 02:32:29;;;;;;;13.83;11.13;;;;;;;3.71;100.00;98511.97;5073104;28;20224;-61
2021/10/17 02:34:55;;;;;;;12.83;10.60;;;;;;;3.68;100.00;98506.84;5072514;28;20215;-61
2021/10/17 02:37:22;;;;;;;14.97;11.23;;;;;;;3.71;100.00;98498.03;5070829;28;20216;-61
2021/10/17 02:39:48;;;;;;;14.83;10.80;;;;;;;3.80;100.00;98501.19;5072817;28;20220;-61
2021/10/17 02:42:15;;;;;;;15.23;10.93;;;;;;;3.86;100.00;98506.19;5072865;28;20219;-61
2021/10/17 02:44:41;;;;;;;13.63;10.33;;;;;;;3.92;100.00;98503.34;5072776;28;20215;-62
2021/10/17 02:47:09;;;;;;;14.20;11.70;;;;;;;3.93;100.00;98499.84;5072810;28;20212;-61
2021/10/17 02:49:36;;;;;;;15.53;11.97;;;;;;;4.01;100.00;98499.53;5072697;28;20244;-62
2021/10/17 02:52:02;;;;;;;16.03;12.53;;;;;;;4.09;100.00;98503.56;5072701;28;20209;-61
2021/10/17 02:54:28;;;;;;;17.97;13.23;;;;;;;4.20;100.00;98504.03;5072713;28;20215;-61
2021/10/17 02:56:55;;;;;;;17.53;12.80;;;;;;;4.28;100.00;98495.91;5072788;28;20214;-61
2021/10/17 02:59:21;;;;;;;17.47;13.13;;;;;;;4.35;100.00;98495.56;5072622;28;20209;-61
2021/10/17 03:01:48;;;;;;;18.33;13.80;;;;;;;4.41;100.00;98503.19;5072708;28;20216;-62
2021/10/17 03:04:16;;;;;;;18.77;14.20;;;;;;;4.44;100.00;98499.59;5071082;28;20236;-61
2021/10/17 03:06:42;;;;;;;13.60;11.40;;;;;;;4.44;100.00;98497.84;5072574;28;20217;-61
2021/10/17 03:09:09;;;;;;;12.87;10.43;;;;;;;4.30;100.00;98502.78;5072543;28;20377;-61
2021/10/17 03:11:35;;;;;;;14.30;10.57;;;;;;;4.16;100.00;98494.56;5072342;28;20219;-61
2021/10/17 03:14:02;;;;;;;14.47;11.00;;;;;;;4.06;100.00;98498.47;5072098;28;20696;-63
2021/10/17 03:16:29;;;;;;;13.80;11.33;;;;;;;3.99;100.00;98497.00;5072302;28;20589;-62
2021/10/17 03:18:56;;;;;;;15.70;12.50;;;;;;;3.97;100.00;98493.56;5072573;28;20226;-61
2021/10/17 03:21:24;;;;;;;17.00;12.80;;;;;;;3.97;100.00;98488.34;5072086;28;20212;-61
2021/10/17 03:23:50;;;;;;;13.87;11.17;;;;;;;3.99;100.00;98491.78;5068668;28;20223;-62
2021/10/17 03:26:17;;;;;;;12.23;10.03;;;;;;;3.95;100.00;98495.41;5070492;28;20221;-62
2021/10/17 03:28:43;;;;;;;11.67;10.27;;;;;;;3.80;100.00;98490.72;5074300;28;20243;-61
2021/10/17 03:31:10;;;;;;;15.53;11.53;;;;;;;3.71;100.00;98491.06;5076198;28;20221;-61
2021/10/17 03:33:37;;;;;;;15.50;11.30;;;;;;;3.77;100.00;98493.47;5076066;28;20220;-61
2021/10/17 03:36:04;;;;;;;16.73;12.23;;;;;;;3.76;100.00;98494.38;5075784;28;20215;-61
2021/10/17 03:38:32;;;;;;;20.97;13.00;;;;;;;3.82;100.00;98496.75;5076125;28;20567;-62
2021/10/17 03:40:59;;;;;;;21.50;13.53;;;;;;;3.84;100.00;98497.56;5076009;28;20221;-62
2021/10/17 03:43:25;;;;;;;21.50;13.37;;;;;;;3.91;100.00;98499.03;5075826;28;20223;-61
2021/10/17 03:45:52;;;;;;;25.57;14.77;;;;;;;3.93;100.00;98502.47;5075714;28;20213;-62
2021/10/17 03:48:18;;;;;;;24.53;15.13;;;;;;;3.98;100.00;98495.28;5075488;28;20222;-61
2021/10/17 03:50:45;;;;;;;25.13;14.03;;;;;;;3.93;100.00;98502.47;5075462;28;20217;-62
2021/10/17 03:53:11;;;;;;;25.53;14.43;;;;;;;3.87;100.00;98500.06;5075505;28;20220;-61
2021/10/17 03:55:41;;;;;;;18.00;11.93;;;;;;;3.85;100.00;98498.41;5074034;28;20223;-61
2021/10/17 03:58:07;;;;;;;20.13;12.97;;;;;;;3.78;100.00;98494.31;5066354;28;20211;-62
2021/10/17 04:00:34;;;;;;;19.97;12.70;;;;;;;3.74;100.00;98497.94;5075349;28;20221;-62
2021/10/17 04:03:01;;;;;;;21.27;12.67;;;;;;;3.62;100.00;98501.00;5075259;28;20692;-63
2021/10/17 04:05:28;;;;;;;25.40;14.27;;;;;;;3.58;100.00;98499.41;5075556;28;20212;-62
2021/10/17 04:07:54;;;;;;;21.87;13.50;;;;;;;3.56;100.00;98496.84;5065818;28;20697;-61
2021/10/17 04:10:20;;;;;;;20.97;13.10;;;;;;;3.54;100.00;98493.44;5075017;28;20239;-61
2021/10/17 04:12:48;;;;;;;20.90;13.27;;;;;;;3.50;100.00;98497.09;5074891;28;20218;-61
2021/10/17 04:15:15;;;;;;;19.23;12.43;;;;;;;3.48;100.00;98493.66;5075180;28;20241;-61
2021/10/17 04:17:41;;;;;;;19.97;13.33;;;;;;;3.40;100.00;98500.91;5075283;28;20242;-61
2021/10/17 04:20:08;;;;;;;18.17;12.57;;;;;;;3.48;100.00;98496.25;5074991;28;20208;-61
2021/10/17 04:22:35;;;;;;;21.07;12.53;;;;;;;3.48;100.00;98487.59;5073589;28;20211;-62
2021/10/17 04:25:03;;;;;;;21.90;14.03;;;;;;;3.50;100.00;98491.84;5074786;28;20212;-61
2021/10/17 04:27:30;;;;;;;20.40;13.67;;;;;;;3.54;100.00;98488.22;5075018;28;20297;-62
2021/10/17 04:29:58;;;;;;;21.53;14.40;;;;;;;3.58;100.00;98487.19;5074869;28;20250;-61
2021/10/17 04:32:25;;;;;;;18.67;12.17;;;;;;;3.62;100.00;98480.94;5074985;28;20212;-61
2021/10/17 04:34:51;;;;;;;19.20;13.50;;;;;;;3.64;100.00;98489.59;5074613;28;20221;-62
2021/10/17 04:37:18;;;;;;;19.57;12.50;;;;;;;3.66;100.00;98492.16;5074438;28;20239;-61
2021/10/17 04:39:44;;;;;;;14.97;11.03;;;;;;;3.72;100.00;98490.16;5074906;28;20584;-62
2021/10/17 04:42:11;;;;;;;18.57;12.47;;;;;;;3.73;100.00;98489.25;5074753;28;20215;-61
2021/10/17 04:44:38;;;;;;;19.50;12.87;;;;;;;3.79;100.00;98493.41;5074622;28;20238;-61
2021/10/17 04:47:06;;;;;;;19.63;13.77;;;;;;;3.86;100.00;98492.28;5072933;28;20213;-62
2021/10/17 04:49:32;;;;;;;21.53;14.33;;;;;;;3.92;100.00;98485.03;5074565;28;20245;-62
2021/10/17 04:51:59;;;;;;;21.40;14.70;;;;;;;4.04;100.00;98494.22;5074226;28;20209;-62
2021/10/17 04:54:25;;;;;;;22.47;14.83;;;;;;;4.09;100.00;98487.88;5074435;28;20211;-62
2021/10/17 04:56:52;;;;;;;24.90;16.27;;;;;;;4.21;100.00;98487.41;5074434;28;20216;-61
2021/10/17 04:59:21;;;;;;;24.53;16.10;;;;;;;4.32;100.00;98485.25;5074256;28;20220;-62
2021/10/17 05:01:48;;;;;;;21.77;16.00;;;;;;;4.33;100.00;98486.94;5074218;28;20218;-62
2021/10/17 05:04:15;;;;;;;22.83;15.93;;;;;;;4.38;100.00;98490.25;5074209;28;20224;-61
2021/10/17 05:06:42;;;;;;;22.07;16.13;;;;;;;4.43;100.00;98483.06;5073864;28;20702;-63
2021/10/17 05:09:08;;;;;;;23.83;15.63;;;;;;;4.49;100.00;98492.44;5067779;28;20253;-62
2021/10/17 05:11:35;;;;;;;20.90;14.73;;;;;;;4.49;100.00;98482.81;5070578;28;20678;-61
2021/10/17 05:14:01;;;;;;;21.83;15.23;;;;;;;4.51;100.00;98487.97;5072102;28;20678;-62
2021/10/17 05:16:28;;;;;;;22.77;16.23;;;;;;;4.55;100.00;98487.81;5074040;28;20296;-61
2021/10/17 05:18:54;;;;;;;24.33;16.67;;;;;;;4.62;100.00;98488.41;5073991;28;20213;-62
2021/10/17 05:21:22;;;;;;;23.07;16.77;;;;;;;4.65;100.00;98486.50;5073832;28;20240;-62
2021/10/17 05:23:48;;;;;;;27.33;17.13;;;;;;;4.70;100.00;98481.94;5070276;28;20224;-62
2021/10/17 05:26:15;;;;;;;29.50;18.23;;;;;;;4.75;100.00;98487.88;5071328;28;20210;-62
2021/10/17 05:28:41;;;;;;;23.43;16.60;;;;;;;4.82;100.00;98486.69;5073935;28;20208;-62
2021/10/17 05:31:08;;;;;;;26.87;17.60;;;;;;;4.83;100.00;98483.16;5073752;28;20233;-62
2021/10/17 05:33:36;;;;;;;28.10;17.50;;;;;;;4.87;100.00;98484.75;5073539;28;20240;-62
2021/10/17 05:36:03;;;;;;;26.37;16.97;;;;;;;4.91;100.00;98481.09;5073580;28;20286;-62
2021/10/17 05:38:31;;;;;;;24.07;16.07;;;;;;;4.87;100.00;98483.88;5072268;28;20553;-61
2021/10/17 05:40:57;;;;;;;22.73;15.97;;;;;;;4.83;100.00;98483.16;5073383;28;20211;-62
2021/10/17 05:43:24;;;;;;;22.10;17.13;;;;;;;4.74;100.00;98483.53;5073140;28;20217;-62
2021/10/17 05:45:51;;;;;;;19.13;14.70;;;;;;;4.78;100.00;98489.50;5073436;28;20217;-62
2021/10/17 05:48:17;;;;;;;22.13;15.43;;;;;;;4.75;100.00;98485.25;5073342;28;20228;-62
2021/10/17 05:50:44;;;;;;;23.47;15.87;;;;;;;4.79;100.00;98491.19;5072987;28;20242;-62
2021/10/17 05:53:10;;;;;;;28.67;17.40;;;;;;;4.88;100.00;98491.69;5073317;28;20606;-63
2021/10/17 05:55:39;;;;;;;25.23;17.20;;;;;;;4.98;100.00;98487.78;5073342;28;20222;-61
2021/10/17 05:58:05;;;;;;;25.93;16.37;;;;;;;5.02;100.00;98491.94;5073212;28;20210;-61
2021/10/17 06:00:32;;;;;;;24.87;16.47;;;;;;;5.10;100.00;98500.38;5073376;28;20222;-62
2021/10/17 06:03:00;;;;;;;24.37;16.63;;;;;;;5.11;100.00;98502.06;5073368;28;20220;-61
2021/10/17 06:05:27;;;;;;;25.13;17.30;;;;;;;5.22;100.00;98504.22;5071293;28;20763;-62
2021/10/17 06:07:53;;;;;;;27.17;17.07;;;;;;;5.30;100.00;98505.63;5063600;28;20220;-62
2021/10/17 06:10:20;;;;;;;27.60;17.10;;;;;;;5.35;100.00;98508.91;5073071;28;20248;-62
2021/10/17 06:12:48;;;;;;;30.87;18.47;;;;;;;5.39;100.00;98517.47;5072859;28;20672;-62
2021/10/17 06:15:15;;;;;;;26.67;16.83;;;;;;;5.45;100.00;98518.06;5073018;28;20288;-62
2021/10/17 06:17:42;;;;;;;25.70;17.07;;;;;;;5.47;100.00;98524.09;5063464;28;20220;-62
2021/10/17 06:20:08;;;;;;;21.87;16.03;;;;;;;5.58;100.00;98527.13;5072168;28;20221;-62
2021/10/17 06:22:35;;;;;;;19.93;15.47;;;;;;;5.66;100.00;98530.25;5073002;28;20228;-62
2021/10/17 06:25:01;;;;;;;21.20;15.60;;;;;;;5.65;100.00;98536.44;5061828;28;20214;-62
2021/10/17 06:27:28;;;;;;;23.50;15.90;;;;;;;5.71;100.00;98538.78;5072868;28;20214;-62
2021/10/17 06:29:56;;;;;;;22.47;15.93;;;;;;;5.79;100.00;98541.91;5072753;28;20248;-62
2021/10/17 06:32:22;;;;;;;23.57;16.20;;;;;;;5.83;100.00;98540.03;5071112;28;20221;-62
2021/10/17 06:34:49;;;;;;;20.93;16.03;;;;;;;5.86;100.00;98546.00;5072316;28;20221;-62
2021/10/17 06:37:15;;;;;;;23.53;16.87;;;;;;;5.89;100.00;98548.50;5072723;28;20221;-62
2021/10/17 06:39:42;;;;;;;23.67;15.83;;;;;;;5.93;100.00;98552.69;5072832;28;20585;-62
2021/10/17 06:42:08;;;;;;;23.17;16.37;;;;;;;5.97;100.00;98549.00;5072787;28;20727;-62
2021/10/17 06:44:36;;;;;;;23.03;16.77;;;;;;;5.99;100.00;98543.69;5072807;28;20628;-62
2021/10/17 06:47:04;;;;;;;22.53;16.17;;;;;;;6.05;100.00;98552.13;5072479;28;20250;-62
2021/10/17 06:49:30;;;;;;;23.67;15.97;;;;;;;6.03;100.00;98551.34;5072578;28;20231;-62
2021/10/17 06:51:57;;;;;;;24.83;16.73;;;;;;;6.04;100.00;98553.06;5072370;28;20222;-62
2021/10/17 06:54:23;;;;;;;25.70;17.60;;;;;;;6.08;100.00;98554.63;5072501;28;20223;-62
2021/10/17 06:56:50;;;;;;;23.33;16.30;;;;;;;6.14;100.00;98549.13;5070822;28;20211;-62
2021/10/17 06:59:16;;;;;;;22.00;15.90;;;;;;;6.18;100.00;98555.06;5072213;28;20710;-62
2021/10/17 07:01:43;;;;;;;23.67;16.67;;;;;;;6.25;100.00;98556.50;5075390;28;20681;-62
2021/10/17 07:04:11;;;;;;;23.27;16.40;;;;;;;6.28;100.00;98565.09;5076359;28;20223;-62
2021/10/17 07:06:38;;;;;;;20.23;16.30;;;;;;;6.36;100.00;98554.25;5076633;28;20631;-62
2021/10/17 07:09:06;;;;;;;23.90;16.30;;;;;;;6.41;100.00;98566.22;5076592;28;20210;-62
2021/10/17 07:11:33;;;;;;;23.07;16.13;;;;;;;6.46;100.00;98573.88;5076487;28;20246;-62
2021/10/17 07:13:59;;;;;;;19.40;15.30;;;;;;;6.50;100.00;98573.69;5076196;28;20215;-62
2021/10/17 07:16:26;;;;;;;20.27;14.93;;;;;;;6.62;100.00;98573.13;5076413;28;20246;-62
2021/10/17 07:18:52;;;;;;;19.20;15.00;;;;;;;6.75;100.00;98574.25;5075913;28;20211;-62
2021/10/17 07:21:20;;;;;;;18.90;13.70;;;;;;;6.78;100.00;98574.09;5075867;28;20676;-62
2021/10/17 07:23:46;;;;;;;16.80;12.83;;;;;;;6.89;100.00;98571.81;5070608;28;20208;-62
2021/10/17 07:26:13;;;;;;;18.23;14.07;;;;;;;6.95;100.00;98575.94;5072677;28;20219;-62
2021/10/17 07:28:40;;;;;;;18.37;14.20;;;;;;;7.00;100.00;98576.56;5072300;28;20810;-62
2021/10/17 07:31:07;;;;;;;20.77;14.43;;;;;;;7.00;100.00;98569.53;5068771;28;20246;-62
2021/10/17 07:33:33;;;;;;;19.20;13.30;;;;;;;7.07;100.00;98575.31;5072350;28;20246;-62
2021/10/17 07:36:01;;;;;;;19.17;13.80;;;;;;;7.10;100.00;98577.81;5068199;28;20218;-63
2021/10/17 07:38:28;;;;;;;19.23;13.43;;;;;;;7.15;100.00;98573.19;5069599;28;20398;-62
2021/10/17 07:40:56;;;;;;;21.20;14.80;;;;;;;7.15;100.00;98584.56;5069319;28;20213;-62
2021/10/17 07:43:23;;;;;;;21.67;14.70;;;;;;;7.15;100.00;98579.28;5073251;28;20633;-62
2021/10/17 07:45:49;;;;;;;22.50;14.70;;;;;;;7.21;100.00;98583.41;5073275;28;20222;-62
2021/10/17 07:48:16;;;;;;;20.53;14.33;;;;;;;7.20;100.00;98585.19;5073312;28;20220;-62
2021/10/17 07:50:42;;;;;;;21.80;15.20;;;;;;;7.20;100.00;98586.97;5069871;28;20250;-62
2021/10/17 07:53:09;;;;;;;22.03;14.83;;;;;;;7.18;100.00;98592.31;5072078;28;20222;-62
2021/10/17 07:55:37;;;;;;;21.20;14.40;;;;;;;7.29;100.00;98590.84;5072502;28;20211;-62
2021/10/17 07:58:03;;;;;;;26.23;16.03;;;;;;;7.34;100.00;98593.28;5072780;28;20219;-62
2021/10/17 08:00:30;;;;;;;21.53;14.67;;;;;;;7.48;100.00;98593.44;5071268;28;20298;-62
2021/10/17 08:02:57;;;;;;;21.70;14.77;;;;;;;7.56;100.00;98596.53;5071950;28;20250;-62
2021/10/17 08:05:24;;;;;;;17.63;13.70;;;;;;;7.55;100.00;98606.22;5072919;28;20753;-62
2021/10/17 08:07:50;;;;;;;19.80;13.90;;;;;;;7.55;100.00;98610.59;5065721;28;20215;-62
2021/10/17 08:10:17;;;;;;;20.53;13.47;;;;;;;7.53;100.00;98607.22;5071605;28;20239;-62
2021/10/17 08:12:45;;;;;;;19.13;12.67;;;;;;;7.52;100.00;98606.34;5070040;28;20224;-62
2021/10/17 08:15:11;;;;;;;19.57;13.63;;;;;;;7.59;100.00;98601.66;5072553;28;20448;-62
2021/10/17 08:17:38;;;;;;;20.27;12.80;;;;;;;7.52;100.00;98608.97;5070568;28;20214;-62
2021/10/17 08:20:06;;;;;;;19.37;12.83;;;;;;;7.61;100.00;98605.03;5072527;28;20234;-62
2021/10/17 08:22:34;;;;;;;20.20;12.77;;;;;;;7.60;100.00;98603.34;5075013;28;20233;-62
2021/10/17 08:25:01;;;;;;;18.97;12.87;;;;;;;7.67;100.00;98600.34;5074769;28;20227;-63
2021/10/17 08:27:28;;;;;;;20.43;13.37;;;;;;;7.75;100.00;98607.81;5074999;28;20215;-63
2021/10/17 08:29:56;;;;;;;21.83;12.50;;;;;;;7.84;100.00;98607.38;5074689;28;20218;-62
2021/10/17 08:32:22;;;;;;;20.93;12.53;;;;;;;8.00;100.00;98610.91;5074793;28;20222;-62
2021/10/17 08:34:49;;;;;;;19.30;12.03;;;;;;;8.13;100.00;98606.72;5074497;28;20211;-62
2021/10/17 08:37:15;;;;;;;17.80;11.23;;;;;;;8.31;100.00;98603.16;5074822;28;20211;-62
2021/10/17 08:39:42;;;;;;;15.67;10.60;;;;;;;8.36;100.00;98606.41;5074854;28;20219;-63
2021/10/17 08:42:08;;;;;;;14.17;9.93;;;;;;;8.44;100.00;98612.97;5072965;28;20216;-62
2021/10/17 08:44:35;;;;;;;14.60;9.33;;;;;;;8.55;100.00;98612.38;5074431;28;20696;-62
2021/10/17 08:47:03;;;;;;;11.63;7.47;;;;;;;8.52;100.00;98612.56;5074565;28;20290;-62
2021/10/17 08:49:29;;;;;;;12.23;8.33;;;;;;;8.58;100.00;98604.34;5074392;28;20224;-62
2021/10/17 08:51:56;;;;;;;10.00;7.23;;;;;;;8.67;100.00;98606.47;5074539;28;20232;-62
2021/10/17 08:54:22;;;;;;;14.23;8.63;;;;;;;8.63;100.00;98610.22;5068694;28;20219;-62
2021/10/17 08:56:49;;;;;;;9.90;7.70;;;;;;;8.71;100.00;98613.28;5074462;28;20561;-62
2021/10/17 08:59:15;;;;;;;10.63;7.93;;;;;;;8.71;100.00;98618.53;5074350;28;20213;-62
2021/10/17 09:01:42;;;;;;;13.23;8.53;;;;;;;8.77;100.00;98607.69;5074071;28;20215;-62
2021/10/17 09:04:11;;;;;;;12.47;8.53;;;;;;;8.84;100.00;98609.03;5074261;28;20213;-62
2021/10/17 09:06:39;;;;;;;11.20;8.17;;;;;;;8.80;100.00;98618.03;5071706;28;20258;-62
2021/10/17 09:09:08;;;;;;;13.20;8.93;;;;;;;8.93;100.00;98614.66;5059312;28;20219;-63
2021/10/17 09:11:41;;;;;;;13.83;8.70;;;;;;;9.09;100.00;98598.84;5061755;28;20232;-62
2021/10/17 09:14:09;;;;;;;13.10;8.50;;;;;;;9.27;100.00;98603.94;5064291;28;20221;-61
2021/10/17 09:16:37;;;;;;;13.33;8.87;;;;;;;9.41;100.00;98598.72;5061329;28;20590;-61
2021/10/17 09:19:10;;;;;;;14.67;9.53;;;;;;;9.48;100.00;98599.22;5060769;28;20216;-61
2021/10/17 09:21:36;;;;;;;13.73;9.50;;;;;;;9.59;100.00;98604.72;5063324;28;20223;-62
2021/10/17 09:24:03;;;;;;;13.00;9.57;;;;;;;9.69;100.00;98600.63;5063243;28;20555;-62
2021/10/17 09:26:30;;;;;;;13.60;9.73;;;;;;;9.78;100.00;98605.38;5064613;28;20227;-62
2021/10/17 09:28:56;;;;;;;12.87;9.30;;;;;;;9.79;100.00;98601.78;5073537;28;20228;-64
2021/10/17 09:31:23;;;;;;;12.33;9.20;;;;;;;9.72;100.00;98605.72;5073298;28;20246;-64
2021/10/17 09:33:52;;;;;;;12.23;9.23;;;;;;;9.71;100.00;98604.88;5073076;28;20690;-63
2021/10/17 09:36:26;;;;;;;11.87;9.20;;;;;;;9.75;100.00;98605.53;5063051;28;20240;-62
2021/10/17 09:38:56;;;;;;;13.37;9.63;;;;;;;9.83;100.00;98605.94;5073354;28;20226;-63
2021/10/17 09:41:31;;;;;;;12.27;8.70;;;;;;;9.67;100.00;98602.50;5073709;28;20220;-63
2021/10/17 09:44:00;;;;;;;13.80;9.50;;;;;;;9.60;100.00;98606.44;5071746;28;20220;-63
2021/10/17 09:46:27;;;;;;;13.17;9.67;;;;;;;9.63;100.00;98599.19;5073444;28;20220;-63
2021/10/17 09:48:55;;;;;;;13.53;9.43;;;;;;;9.82;100.00;98591.03;5073241;28;20213;-63
2021/10/17 09:51:26;;;;;;;11.93;8.77;;;;;;;9.95;100.00;98599.94;5073298;28;20255;-63
2021/10/17 09:53:54;;;;;;;12.77;9.73;;;;;;;10.11;100.00;98592.84;5073016;28;20298;-63
2021/10/17 09:56:25;;;;;;;14.27;10.43;;;;;;;10.18;100.00;98589.75;5073082;28;20213;-64
2021/10/17 09:58:52;;;;;;;13.33;10.27;;;;;;;10.13;100.00;98596.22;5073300;28;20209;-63
2021/10/17 10:01:22;;;;;;;15.07;10.73;;;;;;;10.11;100.00;98592.84;5071731;28;20224;-64
2021/10/17 10:03:50;;;;;;;12.63;9.67;;;;;;;10.13;100.00;98599.72;5073025;28;20219;-63
2021/10/17 10:06:17;;;;;;;12.43;9.80;;;;;;;10.28;100.00;98584.75;5072991;28;20680;-64
2021/10/17 10:08:46;;;;;;;13.17;10.17;;;;;;;10.43;100.00;98589.09;5069396;28;20250;-64
2021/10/17 10:11:12;;;;;;;12.90;9.57;;;;;;;10.51;100.00;98584.19;5072865;28;20242;-63
2021/10/17 10:13:39;;;;;;;12.77;9.87;;;;;;;10.56;100.00;98590.88;5073054;28;20210;-64
2021/10/17 10:16:07;;;;;;;15.57;10.57;;;;;;;10.63;100.00;98583.41;5073285;28;20245;-64
2021/10/17 10:18:37;;;;;;;12.07;9.50;;;;;;;10.73;100.00;98592.47;5073153;28;20615;-63
2021/10/17 10:21:06;;;;;;;13.70;9.80;;;;;;;10.69;100.00;98593.59;5073061;28;20211;-63
2021/10/17 10:23:34;;;;;;;12.50;9.93;;;;;;;10.60;100.00;98596.81;5063714;28;20215;-63
2021/10/17 10:26:02;;;;;;;13.30;10.77;;;;;;;10.49;100.00;98602.78;5072018;28;20218;-63
2021/10/17 10:28:29;;;;;;;13.40;10.10;;;;;;;10.37;99.93;98589.47;5072341;28;20699;-63
2021/10/17 10:30:56;;;;;;;12.87;10.43;;;;;;;10.36;100.00;98600.97;5072737;28;20243;-63
2021/10/17 10:33:24;;;;;;;14.33;10.37;;;;;;;10.31;100.00;98595.13;5063678;28;20211;-63
2021/10/17 10:36:09;;;;;;;13.70;10.80;;;;;;;10.53;100.00;98606.09;5072299;28;20221;-63
2021/10/17 10:39:14;;;;;;;14.77;11.23;;;;;;;10.42;100.00;98596.19;5069780;28;20265;-63
2021/10/17 10:41:50;;;;;;;14.70;10.77;;;;;;;10.50;100.00;98590.41;5066393;28;20701;-63
2021/10/17 10:44:18;;;;;;;15.60;11.33;;;;;;;10.62;100.00;98593.16;5072729;28;20217;-63
2021/10/17 10:46:45;;;;;;;14.73;11.10;;;;;;;10.77;100.00;98594.00;5072771;28;20217;-63
2021/10/17 10:49:12;;;;;;;14.07;11.10;;;;;;;10.90;99.36;98589.63;5072557;28;20211;-63
2021/10/17 10:51:40;;;;;;;16.13;11.77;;;;;;;11.00;98.84;98596.03;5072692;28;20243;-63
2021/10/17 10:54:08;;;;;;;13.20;11.00;;;;;;;10.98;98.88;98592.63;5071062;28;20218;-63
2021/10/17 10:56:52;;;;;;;15.47;11.60;;;;;;;10.93;98.34;98594.72;5072663;28;20215;-63
2021/10/17 10:59:21;;;;;;;15.93;12.37;;;;;;;10.74;98.63;98596.81;5072361;28;20220;-63
2021/10/17 11:02:17;;;;;;;17.80;12.17;;;;;;;10.78;99.93;98606.25;5072632;28;20590;-63
2021/10/17 11:05:16;;;;;;;15.20;12.17;;;;;;;10.74;100.00;98599.47;5071619;28;20672;-63
2021/10/17 11:07:45;;;;;;;16.70;11.83;;;;;;;10.66;100.00;98601.75;5072711;28;20284;-63
2021/10/17 11:10:43;;;;;;;15.43;12.10;;;;;;;10.74;100.00;98600.31;5072485;28;20223;-63
2021/10/17 11:13:27;;;;;;;14.73;12.03;;;;;;;10.79;100.00;98602.66;5066770;28;20222;-63
2021/10/17 11:15:54;;;;;;;15.00;11.33;;;;;;;10.78;100.00;98600.97;5069454;28;20233;-63
2021/10/17 11:18:20;;;;;;;17.47;12.50;;;;;;;10.87;100.00;98595.09;5070747;28;20218;-64